Time;durP1;ratioP1;P1;durP2;ratioP2;P2;SDS_P1;SDS_P2;PMS_P1;PMS_P2;Temp;Humidity;BMP_temperature;BMP_pressure;BME280_temperature;BME280_humidity;BME280_pressure;Samples;Min_cycle;Max_cycle;Signal;HPM_P1;HPM_P2
2023/10/23 00:01:56;;;;;;;6.05;2.50;;;5.00;99.90;;;;;;5068708;28;20298;-89
2023/10/23 00:04:24;;;;;;;5.95;3.05;;;5.00;99.90;;;;;;5085719;28;20220;-91
2023/10/23 00:06:52;;;;;;;4.60;2.17;;;5.00;99.90;;;;;;5085934;28;20266;-90
2023/10/23 00:09:20;;;;;;;6.05;2.63;;;5.00;99.90;;;;;;5081996;28;20197;-90
2023/10/23 00:11:48;;;;;;;6.38;3.10;;;5.00;99.90;;;;;;5085900;28;20601;-91
2023/10/23 00:14:16;;;;;;;4.57;2.58;;;5.00;99.90;;;;;;5089212;28;20195;-90
2023/10/23 00:16:44;;;;;;;7.13;3.25;;;5.00;99.90;;;;;;5089083;28;20195;-91
2023/10/23 00:19:11;;;;;;;7.15;3.03;;;5.00;99.90;;;;;;5089867;28;20200;-90
2023/10/23 00:21:39;;;;;;;6.13;3.13;;;5.00;99.90;;;;;;5086391;28;20195;-90
2023/10/23 00:24:07;;;;;;;6.63;3.17;;;4.90;99.90;;;;;;5074556;28;20282;-90
2023/10/23 00:26:35;;;;;;;5.13;2.58;;;4.90;99.90;;;;;;5067035;28;20203;-90
2023/10/23 00:29:03;;;;;;;6.50;2.63;;;5.00;99.90;;;;;;5085397;28;20176;-91
2023/10/23 00:31:31;;;;;;;5.60;3.00;;;4.90;99.90;;;;;;5085844;28;20196;-91
2023/10/23 00:33:58;;;;;;;6.07;2.95;;;5.00;99.90;;;;;;5070794;28;20224;-91
2023/10/23 00:36:26;;;;;;;5.65;2.90;;;4.90;99.90;;;;;;5080163;28;20184;-90
2023/10/23 00:38:54;;;;;;;5.65;3.25;;;4.90;99.90;;;;;;5085142;28;20220;-91
2023/10/23 00:41:22;;;;;;;6.85;3.35;;;5.00;99.90;;;;;;5087645;28;20222;-90
2023/10/23 00:43:50;;;;;;;7.80;3.38;;;4.90;99.90;;;;;;5084968;28;20188;-90
2023/10/23 00:46:22;;;;;;;5.53;3.10;;;5.00;99.90;;;;;;5067837;28;20189;-91
2023/10/23 00:48:51;;;;;;;7.88;3.78;;;4.90;99.90;;;;;;5083307;28;20192;-90
2023/10/23 00:51:19;;;;;;;6.80;3.17;;;4.90;99.90;;;;;;5071100;28;20199;-90
2023/10/23 00:53:48;;;;;;;6.15;3.35;;;4.90;99.90;;;;;;5078347;28;20223;-90
2023/10/23 00:56:15;;;;;;;6.28;3.70;;;4.90;99.90;;;;;;5084365;28;21023;-90
2023/10/23 00:58:43;;;;;;;6.47;3.33;;;4.90;99.90;;;;;;5068360;28;20207;-90
2023/10/23 01:01:12;;;;;;;10.88;3.75;;;5.00;99.90;;;;;;5065756;28;20940;-91
2023/10/23 01:03:42;;;;;;;11.73;3.83;;;4.90;99.90;;;;;;5063857;28;20203;-89
2023/10/23 01:06:12;;;;;;;7.85;3.50;;;4.90;99.90;;;;;;5067899;28;20220;-90
2023/10/23 01:08:42;;;;;;;7.70;3.72;;;4.90;99.90;;;;;;5065285;28;20199;-91
2023/10/23 01:11:10;;;;;;;9.27;3.40;;;4.90;99.90;;;;;;5080803;28;20188;-91
2023/10/23 01:13:38;;;;;;;9.23;3.53;;;4.90;99.90;;;;;;5084636;28;20203;-90
2023/10/23 01:16:07;;;;;;;7.43;3.88;;;4.90;99.90;;;;;;5084205;28;20204;-90
2023/10/23 01:18:35;;;;;;;7.80;3.40;;;4.90;99.90;;;;;;5068230;28;20724;-90
2023/10/23 01:21:02;;;;;;;5.90;3.22;;;4.90;99.90;;;;;;5084880;28;20228;-90
2023/10/23 01:23:35;;;;;;;6.53;3.95;;;4.90;99.90;;;;;;5059450;28;20628;-90
2023/10/23 01:26:03;;;;;;;7.38;3.35;;;4.90;99.90;;;;;;5095325;28;20689;-91
2023/10/23 01:28:31;;;;;;;7.85;3.63;;;4.80;99.90;;;;;;5088060;28;20192;-90
2023/10/23 01:30:59;;;;;;;6.43;3.10;;;4.80;99.90;;;;;;5071237;28;20245;-88
2023/10/23 01:33:28;;;;;;;5.50;3.05;;;4.90;99.90;;;;;;5087745;28;20325;-91
2023/10/23 01:35:57;;;;;;;5.00;2.97;;;4.90;99.90;;;;;;5083344;28;20213;-90
2023/10/23 01:38:25;;;;;;;5.50;3.22;;;4.90;99.90;;;;;;5083379;28;20238;-91
2023/10/23 01:40:53;;;;;;;7.95;3.00;;;4.90;99.90;;;;;;5050898;28;20772;-91
2023/10/23 01:43:21;;;;;;;5.95;2.92;;;4.90;99.90;;;;;;5069670;28;20196;-90
2023/10/23 01:45:48;;;;;;;5.20;2.67;;;4.90;99.90;;;;;;5087087;28;20253;-91
2023/10/23 01:48:16;;;;;;;6.95;3.25;;;4.90;99.90;;;;;;5087818;28;20260;-90
2023/10/23 01:50:44;;;;;;;7.15;3.30;;;4.90;99.90;;;;;;5084483;28;20207;-91
2023/10/23 01:53:12;;;;;;;5.53;3.00;;;4.90;99.90;;;;;;5077918;28;20611;-91
2023/10/23 01:55:40;;;;;;;4.63;2.58;;;4.90;99.90;;;;;;5067519;28;20861;-91
2023/10/23 01:58:07;;;;;;;7.47;3.25;;;4.80;99.90;;;;;;5074205;28;20219;-91
2023/10/23 02:00:35;;;;;;;5.15;3.05;;;4.80;99.90;;;;;;5058324;28;20204;-90
2023/10/23 02:03:04;;;;;;;7.32;3.47;;;4.80;99.90;;;;;;5067547;28;20195;-91
2023/10/23 02:05:32;;;;;;;5.93;3.13;;;4.90;99.90;;;;;;5066597;28;20284;-91
2023/10/23 02:07:59;;;;;;;4.68;2.83;;;4.90;99.90;;;;;;5067051;28;20188;-91
2023/10/23 02:10:28;;;;;;;5.90;3.13;;;4.90;99.90;;;;;;5072370;28;20196;-91
2023/10/23 02:12:56;;;;;;;3.92;2.13;;;4.90;99.90;;;;;;5072592;28;20223;-90
2023/10/23 02:15:24;;;;;;;4.70;2.47;;;4.90;99.90;;;;;;5084181;28;20195;-90
2023/10/23 02:17:53;;;;;;;3.38;2.08;;;4.90;99.90;;;;;;5087331;28;20282;-90
2023/10/23 02:20:22;;;;;;;4.65;2.58;;;4.80;99.90;;;;;;5068781;28;20208;-91
2023/10/23 02:22:49;;;;;;;5.00;2.42;;;4.80;99.90;;;;;;5050340;28;20184;-91
2023/10/23 02:25:17;;;;;;;4.63;2.30;;;4.90;99.90;;;;;;5071021;28;20186;-91
2023/10/23 02:27:45;;;;;;;3.63;2.08;;;4.90;99.90;;;;;;5087461;28;20188;-90
2023/10/23 02:30:13;;;;;;;3.38;1.92;;;4.90;99.90;;;;;;5087088;28;20184;-90
2023/10/23 02:32:40;;;;;;;4.53;2.38;;;4.90;99.90;;;;;;5085245;28;20359;-91
2023/10/23 02:35:08;;;;;;;3.80;2.15;;;4.90;99.90;;;;;;5083921;28;20685;-91
2023/10/23 02:37:36;;;;;;;3.25;2.00;;;4.90;99.90;;;;;;5065373;28;20204;-88
2023/10/23 02:40:05;;;;;;;3.22;2.05;;;4.90;99.90;;;;;;5090594;28;20212;-91
2023/10/23 02:42:33;;;;;;;3.05;2.08;;;4.90;99.90;;;;;;5076292;28;20192;-89
2023/10/23 02:45:01;;;;;;;3.10;1.85;;;4.90;99.90;;;;;;5082159;28;20276;-90
2023/10/23 02:47:28;;;;;;;3.63;2.00;;;4.90;99.90;;;;;;5083574;28;20195;-90
2023/10/23 02:49:56;;;;;;;4.40;2.17;;;4.90;99.90;;;;;;5057412;28;20199;-90
2023/10/23 02:52:25;;;;;;;3.35;1.98;;;4.90;99.90;;;;;;5074334;28;20199;-91
2023/10/23 02:54:54;;;;;;;4.50;2.15;;;4.90;99.90;;;;;;5054764;28;20184;-91
2023/10/23 02:57:22;;;;;;;3.08;1.88;;;4.90;99.90;;;;;;5071081;28;20200;-90
2023/10/23 02:59:50;;;;;;;3.75;1.95;;;4.90;99.90;;;;;;5070364;28;20279;-90
2023/10/23 03:02:19;;;;;;;3.13;1.75;;;4.90;99.90;;;;;;5074284;28;20183;-90
2023/10/23 03:04:47;;;;;;;4.15;2.10;;;4.90;99.90;;;;;;5070259;28;20196;-91
2023/10/23 03:07:14;;;;;;;3.15;2.03;;;4.90;99.90;;;;;;5071125;28;20184;-91
2023/10/23 03:09:42;;;;;;;3.60;2.03;;;4.90;99.90;;;;;;5053963;28;20191;-90
2023/10/23 03:12:10;;;;;;;5.15;1.90;;;4.90;99.90;;;;;;5056790;28;20273;-91
2023/10/23 03:14:38;;;;;;;3.33;1.92;;;4.90;99.90;;;;;;5073000;28;20601;-90
2023/10/23 03:17:07;;;;;;;2.85;1.65;;;4.90;99.90;;;;;;5091275;28;20184;-90
2023/10/23 03:19:34;;;;;;;6.60;2.15;;;4.90;99.90;;;;;;5070413;28;20212;-92
2023/10/23 03:22:03;;;;;;;3.30;1.83;;;4.90;99.90;;;;;;5068392;28;20212;-90
2023/10/23 03:24:30;;;;;;;2.50;1.65;;;4.90;99.90;;;;;;5071636;28;20647;-91
2023/10/23 03:26:58;;;;;;;4.70;2.00;;;4.90;99.90;;;;;;5070815;28;20211;-90
2023/10/23 03:29:26;;;;;;;2.53;1.77;;;4.90;99.90;;;;;;5066487;28;20195;-90
2023/10/23 03:31:55;;;;;;;3.55;2.38;;;4.90;99.90;;;;;;5053643;28;20188;-91
2023/10/23 03:34:27;;;;;;;6.60;1.65;;;4.90;99.90;;;;;;5086454;28;20232;-90
2023/10/23 03:36:55;;;;;;;2.67;1.55;;;4.90;99.90;;;;;;5088877;28;20181;-89
2023/10/23 03:39:24;;;;;;;4.68;2.05;;;4.90;99.90;;;;;;5090603;28;20184;-89
2023/10/23 03:41:52;;;;;;;5.40;2.33;;;4.80;99.90;;;;;;5086420;28;21098;-91
2023/10/23 03:44:20;;;;;;;3.63;2.08;;;4.90;99.90;;;;;;5077742;28;20195;-91
2023/10/23 03:46:47;;;;;;;5.30;2.30;;;4.90;99.90;;;;;;5085650;28;20193;-89
2023/10/23 03:49:15;;;;;;;4.22;2.50;;;4.90;99.90;;;;;;5066689;28;20273;-87
2023/10/23 03:51:43;;;;;;;3.22;1.92;;;4.90;99.90;;;;;;5068682;28;20204;-89
2023/10/23 03:54:11;;;;;;;3.17;1.70;;;4.90;99.90;;;;;;5066587;28;20192;-89
2023/10/23 03:56:39;;;;;;;3.58;2.08;;;4.90;99.90;;;;;;5069096;28;20197;-89
2023/10/23 03:59:07;;;;;;;5.38;2.38;;;4.90;99.90;;;;;;5068995;28;20272;-90
2023/10/23 04:01:34;;;;;;;4.75;2.42;;;4.90;99.90;;;;;;5063857;28;20300;-90
2023/10/23 04:04:02;;;;;;;6.93;2.55;;;4.90;99.90;;;;;;5067896;28;20275;-88
2023/10/23 04:06:30;;;;;;;5.32;2.83;;;4.90;99.90;;;;;;5085077;28;20189;-89
2023/10/23 04:08:58;;;;;;;4.82;2.65;;;4.90;99.90;;;;;;5068311;28;20710;-89
2023/10/23 04:11:26;;;;;;;4.65;2.45;;;4.90;99.90;;;;;;5055557;28;20292;-90
2023/10/23 04:13:54;;;;;;;4.93;2.40;;;4.90;99.90;;;;;;5066218;28;20189;-91
2023/10/23 04:16:22;;;;;;;4.85;2.38;;;4.90;99.90;;;;;;5068727;28;20200;-90
2023/10/23 04:18:50;;;;;;;7.32;2.85;;;4.90;99.90;;;;;;5069975;28;20676;-91
2023/10/23 04:21:20;;;;;;;5.78;2.72;;;4.90;99.90;;;;;;5069129;28;21061;-91
2023/10/23 04:23:48;;;;;;;4.10;2.30;;;4.90;99.90;;;;;;5052971;28;20192;-92
2023/10/23 04:26:16;;;;;;;4.25;2.35;;;4.90;99.90;;;;;;5068518;28;20742;-89
2023/10/23 04:28:43;;;;;;;3.47;1.98;;;4.90;99.90;;;;;;5068974;28;20284;-90
2023/10/23 04:31:11;;;;;;;3.83;2.13;;;4.90;99.90;;;;;;5069485;28;20257;-86
2023/10/23 04:33:39;;;;;;;3.75;2.03;;;4.90;99.90;;;;;;5086407;28;20279;-90
2023/10/23 04:36:07;;;;;;;3.35;2.17;;;4.90;99.90;;;;;;5068875;28;20200;-89
2023/10/23 04:38:34;;;;;;;2.33;1.40;;;4.90;99.90;;;;;;5085856;28;20254;-90
2023/10/23 04:41:02;;;;;;;2.70;1.55;;;4.90;99.90;;;;;;5063187;28;20550;-90
2023/10/23 04:43:30;;;;;;;5.88;1.95;;;4.90;99.90;;;;;;5069446;28;20569;-90
2023/10/23 04:45:58;;;;;;;3.05;1.65;;;4.90;99.90;;;;;;5085287;28;20571;-91
2023/10/23 04:48:26;;;;;;;3.35;1.75;;;4.90;99.90;;;;;;5068182;28;20235;-90
2023/10/23 04:51:01;;;;;;;2.92;1.38;;;4.90;99.90;;;;;;5081642;28;20242;-90
2023/10/23 04:53:29;;;;;;;3.22;1.50;;;5.00;99.90;;;;;;5083795;28;20821;-90
2023/10/23 04:55:58;;;;;;;3.10;1.70;;;5.00;99.90;;;;;;5088628;28;20196;-90
2023/10/23 04:58:26;;;;;;;2.72;1.40;;;5.00;99.90;;;;;;5088416;28;20202;-90
2023/10/23 05:00:54;;;;;;;1.65;1.25;;;5.00;99.90;;;;;;5082717;28;20979;-88
2023/10/23 05:03:21;;;;;;;1.65;0.98;;;5.00;99.90;;;;;;5066940;28;20276;-87
2023/10/23 05:05:49;;;;;;;10.07;1.45;;;5.00;99.90;;;;;;5083982;28;21004;-88
2023/10/23 05:08:17;;;;;;;2.30;1.50;;;5.00;99.90;;;;;;5083797;28;20279;-82
2023/10/23 05:10:45;;;;;;;2.60;1.00;;;5.00;99.90;;;;;;5082201;28;20195;-84
2023/10/23 05:13:12;;;;;;;1.70;1.10;;;5.00;99.90;;;;;;5081657;28;20189;-90
2023/10/23 05:15:40;;;;;;;1.20;1.00;;;5.10;99.90;;;;;;5083725;28;20203;-90
2023/10/23 05:18:08;;;;;;;4.30;0.90;;;5.00;99.90;;;;;;5067804;28;20188;-90
2023/10/23 05:20:36;;;;;;;1.25;1.00;;;5.00;99.90;;;;;;5092031;28;20209;-90
2023/10/23 05:23:03;;;;;;;1.73;1.13;;;5.00;99.90;;;;;;5084102;28;20189;-90
2023/10/23 05:25:34;;;;;;;1.65;0.98;;;5.00;99.90;;;;;;5052409;28;20195;-90
2023/10/23 05:28:02;;;;;;;2.83;1.63;;;5.00;99.90;;;;;;5076006;28;20183;-89
2023/10/23 05:30:30;;;;;;;1.50;1.00;;;5.00;99.90;;;;;;5078311;28;20192;-89
2023/10/23 05:32:58;;;;;;;1.75;1.20;;;5.00;99.90;;;;;;5078926;28;20524;-90
2023/10/23 05:35:26;;;;;;;2.10;1.40;;;5.00;99.90;;;;;;5086578;28;20310;-90
2023/10/23 05:37:53;;;;;;;1.45;1.15;;;5.00;99.90;;;;;;5068639;28;20291;-89
2023/10/23 05:40:21;;;;;;;1.58;1.17;;;5.00;99.90;;;;;;5086156;28;20955;-91
2023/10/23 05:42:49;;;;;;;3.17;1.40;;;5.00;99.90;;;;;;5080742;28;20184;-89
2023/10/23 05:45:16;;;;;;;2.47;1.55;;;5.00;99.90;;;;;;5085688;28;20191;-89
2023/10/23 05:47:44;;;;;;;3.15;1.50;;;5.00;99.90;;;;;;5083532;28;20283;-88
2023/10/23 05:50:12;;;;;;;3.72;1.50;;;5.00;99.90;;;;;;5052197;28;20188;-88
2023/10/23 05:52:40;;;;;;;3.25;1.58;;;5.00;99.90;;;;;;5064665;28;20248;-89
2023/10/23 05:55:08;;;;;;;3.50;1.98;;;5.00;99.90;;;;;;5061806;28;20188;-90
2023/10/23 05:57:36;;;;;;;3.35;1.70;;;5.00;99.90;;;;;;5070246;28;20199;-90
2023/10/23 06:00:04;;;;;;;6.45;2.17;;;5.10;99.90;;;;;;5085687;28;20200;-90
2023/10/23 06:02:33;;;;;;;5.20;2.53;;;5.10;99.90;;;;;;5081815;28;20243;-88
2023/10/23 06:05:01;;;;;;;4.40;2.40;;;5.00;99.90;;;;;;5054362;28;20417;-88
2023/10/23 06:07:29;;;;;;;5.00;2.45;;;5.00;99.90;;;;;;5079656;28;20252;-89
2023/10/23 06:09:58;;;;;;;6.40;2.80;;;5.00;99.90;;;;;;5066766;28;20195;-88
2023/10/23 06:12:26;;;;;;;5.60;2.60;;;5.00;99.90;;;;;;5060264;28;20249;-89
2023/10/23 06:14:54;;;;;;;5.47;2.90;;;5.00;99.90;;;;;;5070001;28;20207;-90
2023/10/23 06:17:22;;;;;;;4.55;2.72;;;5.00;99.90;;;;;;5068354;28;20204;-90
2023/10/23 06:19:49;;;;;;;5.65;3.20;;;5.00;99.90;;;;;;5068481;28;20181;-89
2023/10/23 06:22:17;;;;;;;6.47;3.35;;;5.10;99.90;;;;;;5084783;28;20202;-89
2023/10/23 06:24:45;;;;;;;4.88;3.15;;;5.10;99.90;;;;;;5065514;28;20212;-90
2023/10/23 06:27:13;;;;;;;6.20;3.42;;;5.10;99.90;;;;;;5090278;28;20196;-89
2023/10/23 06:29:41;;;;;;;6.22;3.67;;;5.10;99.90;;;;;;5066211;28;20266;-93
2023/10/23 06:32:11;;;;;;;6.00;3.45;;;5.10;99.90;;;;;;5068378;28;20211;-92
2023/10/23 06:34:39;;;;;;;5.95;3.60;;;5.20;99.90;;;;;;5066144;28;20224;-92
2023/10/23 06:37:07;;;;;;;7.40;4.13;;;5.20;99.90;;;;;;5062697;28;20659;-89
2023/10/23 06:39:35;;;;;;;6.75;4.13;;;5.20;99.90;;;;;;5048847;28;20192;-87
2023/10/23 06:42:04;;;;;;;7.28;4.15;;;5.20;99.90;;;;;;5050263;28;20204;-94
2023/10/23 06:44:33;;;;;;;7.53;3.88;;;5.20;99.90;;;;;;5070335;28;20196;-94
2023/10/23 06:47:00;;;;;;;7.07;4.10;;;5.30;99.90;;;;;;5084811;28;20193;-93
2023/10/23 06:49:28;;;;;;;7.82;4.28;;;5.30;99.90;;;;;;5086469;28;21055;-93
2023/10/23 06:51:56;;;;;;;6.93;4.18;;;5.30;99.90;;;;;;5084146;28;20188;-94
2023/10/23 06:54:26;;;;;;;5.82;3.60;;;5.30;99.90;;;;;;5079816;28;20219;-94
2023/10/23 06:56:54;;;;;;;7.00;3.92;;;5.30;99.90;;;;;;5050289;28;20237;-94
2023/10/23 06:59:22;;;;;;;8.40;4.30;;;5.40;99.90;;;;;;5067311;28;20208;-93
2023/10/23 07:01:50;;;;;;;8.00;4.68;;;5.40;99.90;;;;;;5050693;28;20290;-93
2023/10/23 07:04:18;;;;;;;7.93;4.47;;;5.30;99.90;;;;;;5079847;28;20216;-94
2023/10/23 07:06:45;;;;;;;9.43;4.88;;;5.40;99.90;;;;;;5066795;28;20192;-93
2023/10/23 07:09:20;;;;;;;6.95;4.43;;;5.50;99.90;;;;;;5058688;28;20286;-94
2023/10/23 07:11:50;;;;;;;8.65;4.65;;;5.50;99.90;;;;;;5081663;28;20199;-94
2023/10/23 07:14:19;;;;;;;8.40;4.43;;;5.50;99.90;;;;;;5050293;28;20196;-94
2023/10/23 07:16:46;;;;;;;6.78;4.13;;;5.40;99.90;;;;;;5078217;28;20213;-93
2023/10/23 07:19:17;;;;;;;8.18;4.60;;;5.50;99.90;;;;;;5077283;28;20235;-94
2023/10/23 07:21:48;;;;;;;10.48;4.47;;;5.50;99.90;;;;;;5050436;28;20209;-94
2023/10/23 07:24:16;;;;;;;5.93;3.70;;;5.50;99.90;;;;;;5083868;28;20185;-94
2023/10/23 07:26:44;;;;;;;7.75;3.95;;;5.50;99.90;;;;;;5083739;28;20262;-94
2023/10/23 07:29:12;;;;;;;6.13;3.78;;;5.50;99.90;;;;;;5066712;28;20205;-94
2023/10/23 07:31:41;;;;;;;7.45;4.20;;;5.50;99.90;;;;;;5067184;28;20238;-93
2023/10/23 07:34:09;;;;;;;6.20;4.03;;;5.50;99.90;;;;;;5064206;28;20237;-94
2023/10/23 07:36:39;;;;;;;6.97;4.40;;;5.50;99.90;;;;;;5090079;28;20203;-94
2023/10/23 07:39:08;;;;;;;6.22;3.97;;;5.50;99.90;;;;;;5087554;28;20928;-94
2023/10/23 07:41:35;;;;;;;5.97;4.00;;;5.50;99.90;;;;;;5084202;28;20229;-94
2023/10/23 07:44:04;;;;;;;4.25;2.78;;;5.50;99.90;;;;;;5074295;28;20211;-94
2023/10/23 07:46:31;;;;;;;6.78;3.63;;;5.50;99.90;;;;;;5087199;28;20192;-93
2023/10/23 07:48:59;;;;;;;5.53;3.45;;;5.50;99.90;;;;;;5082511;28;20189;-94
2023/10/23 07:51:28;;;;;;;5.20;3.17;;;5.60;99.90;;;;;;5070594;28;20197;-95
2023/10/23 07:53:58;;;;;;;5.22;3.08;;;5.60;99.90;;;;;;5070695;28;20189;-94
2023/10/23 07:56:29;;;;;;;7.07;4.10;;;5.60;99.90;;;;;;5054477;28;20280;-94
2023/10/23 07:59:00;;;;;;;6.75;3.50;;;5.60;99.90;;;;;;5071616;28;20665;-94
2023/10/23 08:01:28;;;;;;;5.45;3.05;;;5.60;99.90;;;;;;5085688;28;20444;-94
2023/10/23 08:03:55;;;;;;;7.00;3.65;;;5.60;99.90;;;;;;5070209;28;20200;-94
2023/10/23 08:06:23;;;;;;;7.18;3.70;;;5.60;99.90;;;;;;5072084;28;20204;-94
2023/10/23 08:08:51;;;;;;;6.15;3.33;;;5.60;99.90;;;;;;5070076;28;20238;-95
2023/10/23 08:11:19;;;;;;;5.20;3.10;;;5.60;99.90;;;;;;5077185;28;20269;-95
2023/10/23 08:13:47;;;;;;;5.50;3.35;;;5.60;99.90;;;;;;5087649;28;20212;-95
2023/10/23 08:16:14;;;;;;;7.10;3.92;;;5.60;99.90;;;;;;5071032;28;20193;-95
2023/10/23 08:18:42;;;;;;;6.72;3.72;;;5.60;99.90;;;;;;5087934;28;20183;-95
2023/10/23 08:21:15;;;;;;;5.85;3.50;;;5.60;99.90;;;;;;5089825;28;20280;-95
2023/10/23 08:23:52;;;;;;;5.53;3.72;;;5.60;99.90;;;;;;5090009;28;20279;-96
2023/10/23 08:26:21;;;;;;;6.20;3.35;;;5.70;99.90;;;;;;5090639;28;20724;-95
2023/10/23 08:28:50;;;;;;;7.85;3.65;;;5.70;99.90;;;;;;5073391;28;20188;-94
2023/10/23 08:31:21;;;;;;;5.72;3.10;;;5.70;99.90;;;;;;5086587;28;20196;-95
2023/10/23 08:34:05;;;;;;;5.10;2.92;;;5.70;99.90;;;;;;5071817;28;20222;-95
2023/10/23 08:36:34;;;;;;;5.78;2.97;;;5.70;99.90;;;;;;5084269;28;20201;-95
2023/10/23 08:39:03;;;;;;;5.68;3.10;;;5.70;99.90;;;;;;5052533;28;20196;-95
2023/10/23 08:41:31;;;;;;;4.65;2.97;;;5.70;99.90;;;;;;5052681;28;21065;-95
2023/10/23 08:43:59;;;;;;;4.88;3.28;;;5.70;99.90;;;;;;5069401;28;20191;-94
2023/10/23 08:46:33;;;;;;;5.93;3.33;;;5.70;99.90;;;;;;5071838;28;20557;-95
2023/10/23 08:49:02;;;;;;;4.97;2.85;;;5.80;99.90;;;;;;5062194;28;20218;-94
2023/10/23 08:51:31;;;;;;;7.72;3.08;;;5.70;99.90;;;;;;5064603;28;20547;-95
2023/10/23 08:54:16;;;;;;;5.80;3.30;;;5.80;99.90;;;;;;5071134;28;20192;-95
2023/10/23 08:56:44;;;;;;;5.90;3.05;;;5.80;99.90;;;;;;5074571;28;20681;-95
2023/10/23 08:59:14;;;;;;;9.52;3.15;;;5.80;99.90;;;;;;5091053;28;20188;-95
2023/10/23 09:01:42;;;;;;;4.38;2.85;;;5.70;99.90;;;;;;5087344;28;20220;-95
2023/10/23 09:04:11;;;;;;;6.20;2.88;;;5.70;99.90;;;;;;5053535;28;20214;-96
2023/10/23 09:06:40;;;;;;;5.53;3.17;;;5.80;99.90;;;;;;5081466;28;20254;-95
2023/10/23 09:09:08;;;;;;;5.10;2.70;;;5.70;99.90;;;;;;5090062;28;20172;-95
2023/10/23 09:11:43;;;;;;;4.78;2.58;;;5.70;99.90;;;;;;5091360;28;20208;-95
2023/10/23 09:14:25;;;;;;;4.65;2.42;;;5.80;99.90;;;;;;5086874;28;20196;-95
2023/10/23 09:16:57;;;;;;;3.50;2.05;;;5.80;99.90;;;;;;5087659;28;20228;-94
2023/10/23 09:19:36;;;;;;;3.55;1.90;;;5.80;99.90;;;;;;5068235;28;20603;-95
2023/10/23 09:22:06;;;;;;;4.32;2.25;;;5.80;99.90;;;;;;5071973;28;20212;-95
2023/10/23 09:24:36;;;;;;;5.10;3.03;;;5.80;99.90;;;;;;5070846;28;20204;-95
2023/10/23 09:27:05;;;;;;;4.32;2.20;;;5.80;99.90;;;;;;5072487;28;20196;-95
2023/10/23 09:29:34;;;;;;;4.70;2.65;;;5.80;99.90;;;;;;5072814;28;20189;-95
2023/10/23 09:32:04;;;;;;;3.90;2.42;;;5.80;99.90;;;;;;5080572;28;20759;-95
2023/10/23 09:34:38;;;;;;;4.72;2.53;;;5.80;99.90;;;;;;5068673;28;20267;-95
2023/10/23 09:37:07;;;;;;;4.03;2.05;;;5.90;99.90;;;;;;5052667;28;20192;-95
2023/10/23 09:39:37;;;;;;;3.80;2.15;;;5.90;99.90;;;;;;5061147;28;20196;-95
2023/10/23 09:42:08;;;;;;;4.57;2.30;;;5.90;99.90;;;;;;5068949;28;20240;-95
2023/10/23 09:44:37;;;;;;;5.28;2.42;;;5.90;99.90;;;;;;5081917;28;20188;-95
2023/10/23 09:47:07;;;;;;;3.92;2.13;;;5.90;99.90;;;;;;5053317;28;20276;-95
2023/10/23 09:49:37;;;;;;;3.45;2.00;;;5.90;99.90;;;;;;5069428;28;20216;-94
2023/10/23 09:52:09;;;;;;;6.85;2.47;;;5.90;99.90;;;;;;5078559;28;20294;-94
2023/10/23 09:54:38;;;;;;;2.72;1.80;;;5.90;99.90;;;;;;5073496;28;20202;-95
2023/10/23 09:57:10;;;;;;;3.08;1.77;;;5.90;99.90;;;;;;5055366;28;20196;-95
2023/10/23 09:59:42;;;;;;;8.00;2.47;;;5.90;99.90;;;;;;5069226;28;20271;-95
2023/10/23 10:02:13;;;;;;;3.72;2.03;;;5.90;99.90;;;;;;5069042;28;20217;-96
2023/10/23 10:04:47;;;;;;;4.50;2.38;;;6.00;99.90;;;;;;5053492;28;20192;-96
2023/10/23 10:07:40;;;;;;;4.05;2.00;;;5.90;99.90;;;;;;5069205;28;20188;-94
2023/10/23 10:10:09;;;;;;;3.15;2.00;;;6.00;99.90;;;;;;5070027;28;20212;-96
2023/10/23 10:12:40;;;;;;;3.67;2.00;;;6.10;99.90;;;;;;5052704;28;20203;-96
2023/10/23 10:15:11;;;;;;;5.25;2.38;;;6.10;99.90;;;;;;5054627;28;20255;-95
2023/10/23 10:17:40;;;;;;;2.65;1.73;;;6.10;99.90;;;;;;5052688;28;20228;-96
2023/10/23 10:20:11;;;;;;;3.22;2.15;;;6.10;99.90;;;;;;5053952;28;20185;-95
2023/10/23 10:22:43;;;;;;;3.20;1.92;;;6.10;99.90;;;;;;5069719;28;20216;-95
2023/10/23 10:25:11;;;;;;;4.38;2.28;;;6.10;99.90;;;;;;5087630;28;20257;-95
2023/10/23 10:27:39;;;;;;;3.08;2.10;;;6.10;99.90;;;;;;5074243;28;20617;-95
2023/10/23 10:30:41;;;;;;;4.20;2.13;;;6.10;99.90;;;;;;5087567;28;20191;-95
2023/10/23 10:33:29;;;;;;;3.25;1.80;;;6.00;99.90;;;;;;5076199;28;20218;-95
2023/10/23 10:36:18;;;;;;;3.40;1.98;;;6.00;99.90;;;;;;5073039;28;20267;-94
2023/10/23 10:39:06;;;;;;;3.80;1.73;;;6.00;99.90;;;;;;5058961;28;20192;-95
2023/10/23 10:41:35;;;;;;;3.10;2.05;;;6.00;99.90;;;;;;5055774;28;20193;-96
2023/10/23 10:44:12;;;;;;;4.10;2.05;;;6.00;99.90;;;;;;5053955;28;20654;-94
2023/10/23 10:46:41;;;;;;;3.72;2.25;;;6.00;99.90;;;;;;5055344;28;20192;-95
2023/10/23 10:49:10;;;;;;;3.88;2.30;;;6.10;99.90;;;;;;5058223;28;20650;-94
2023/10/23 10:51:38;;;;;;;5.15;2.67;;;6.10;99.90;;;;;;5072853;28;20192;-95
2023/10/23 10:54:07;;;;;;;5.35;2.40;;;6.10;99.90;;;;;;5081082;28;20673;-94
2023/10/23 10:56:35;;;;;;;4.18;2.20;;;6.10;99.90;;;;;;5078908;28;20270;-95
2023/10/23 10:59:05;;;;;;;4.35;2.60;;;6.10;99.90;;;;;;5088588;28;20195;-96
2023/10/23 11:01:33;;;;;;;3.45;2.08;;;6.10;99.90;;;;;;5080214;28;20215;-94
2023/10/23 11:04:01;;;;;;;3.58;2.13;;;6.10;99.90;;;;;;5072407;28;20265;-96
2023/10/23 11:06:29;;;;;;;4.10;2.40;;;6.10;99.90;;;;;;5072470;28;20187;-95
2023/10/23 11:08:58;;;;;;;4.20;2.33;;;6.10;99.90;;;;;;5073707;28;20196;-95
2023/10/23 11:11:27;;;;;;;3.75;2.28;;;6.10;99.90;;;;;;5061172;28;20188;-94
2023/10/23 11:13:59;;;;;;;3.78;2.20;;;6.10;99.90;;;;;;5094955;28;20201;-96
2023/10/23 11:16:30;;;;;;;5.30;2.03;;;6.10;99.90;;;;;;5077129;28;20180;-96
2023/10/23 11:18:59;;;;;;;3.35;2.17;;;6.00;99.90;;;;;;5077181;28;20227;-95
2023/10/23 11:21:27;;;;;;;2.85;1.90;;;6.10;99.90;;;;;;5075018;28;20283;-96
2023/10/23 11:23:55;;;;;;;4.82;2.20;;;6.00;99.90;;;;;;5060113;28;20197;-93
2023/10/23 11:26:25;;;;;;;2.35;1.52;;;6.10;99.90;;;;;;5075829;28;20192;-95
2023/10/23 11:28:53;;;;;;;2.38;1.58;;;6.10;99.90;;;;;;5075117;28;20195;-94
2023/10/23 11:31:21;;;;;;;2.33;1.48;;;6.00;99.90;;;;;;5088439;28;20291;-95
2023/10/23 11:33:56;;;;;;;2.78;1.65;;;5.90;99.90;;;;;;5093048;28;20192;-95
2023/10/23 11:36:32;;;;;;;2.50;1.60;;;5.90;99.90;;;;;;5087160;28;20196;-94
2023/10/23 11:39:06;;;;;;;2.88;1.90;;;5.90;99.90;;;;;;5077511;28;20658;-94
2023/10/23 11:41:34;;;;;;;2.63;1.75;;;5.90;99.90;;;;;;5093962;28;20210;-94
2023/10/23 11:44:03;;;;;;;3.55;2.00;;;5.80;99.90;;;;;;5092381;28;20264;-93
2023/10/23 11:46:33;;;;;;;2.90;2.00;;;5.90;99.90;;;;;;5074170;28;20192;-94
2023/10/23 11:49:02;;;;;;;3.47;2.00;;;5.80;99.90;;;;;;5093037;28;20207;-95
2023/10/23 11:51:31;;;;;;;3.63;2.17;;;5.80;99.90;;;;;;5094473;28;20494;-94
2023/10/23 11:54:03;;;;;;;3.42;2.13;;;5.80;99.90;;;;;;5075062;28;20209;-93
2023/10/23 11:56:32;;;;;;;3.40;1.92;;;5.80;99.90;;;;;;5089183;28;20187;-94
2023/10/23 11:59:00;;;;;;;2.70;1.92;;;5.80;99.90;;;;;;5077950;28;20628;-94
2023/10/23 12:01:28;;;;;;;2.92;1.90;;;5.80;99.90;;;;;;5073969;28;20185;-93
2023/10/23 12:03:56;;;;;;;3.25;2.20;;;5.80;99.90;;;;;;5074548;28;20200;-94
2023/10/23 12:06:24;;;;;;;3.35;1.90;;;5.80;99.90;;;;;;5069152;28;20207;-93
2023/10/23 12:08:51;;;;;;;3.45;2.13;;;5.80;99.90;;;;;;5076246;28;20250;-94
2023/10/23 12:11:19;;;;;;;3.10;1.80;;;5.80;99.90;;;;;;5074144;28;20219;-94
2023/10/23 12:13:47;;;;;;;4.28;1.90;;;5.90;99.90;;;;;;5074062;28;20196;-94
2023/10/23 12:16:14;;;;;;;2.15;1.55;;;5.90;99.90;;;;;;5057257;28;20592;-94
2023/10/23 12:18:43;;;;;;;2.92;1.70;;;5.90;99.90;;;;;;5082343;28;20205;-95
2023/10/23 12:21:12;;;;;;;3.08;1.67;;;6.00;99.90;;;;;;5068986;28;20218;-94
2023/10/23 12:23:41;;;;;;;2.67;1.42;;;6.30;99.90;;;;;;5057285;28;20209;-94
2023/10/23 12:26:08;;;;;;;2.95;1.45;;;6.70;99.90;;;;;;5074574;28;20209;-94
2023/10/23 12:28:36;;;;;;;4.50;1.60;;;6.70;99.90;;;;;;5093462;28;20192;-93
2023/10/23 12:31:04;;;;;;;2.20;1.50;;;6.40;99.90;;;;;;5073138;28;20203;-94
2023/10/23 12:33:51;;;;;;;1.80;1.30;;;6.40;99.90;;;;;;5088518;28;20245;-94
2023/10/23 12:36:19;;;;;;;1.70;1.20;;;6.50;99.90;;;;;;5077083;28;20184;-94
2023/10/23 12:38:47;;;;;;;4.50;1.40;;;6.60;99.90;;;;;;5076733;28;20184;-94
2023/10/23 12:41:15;;;;;;;2.88;1.80;;;6.50;99.90;;;;;;5076829;28;20191;-94
2023/10/23 12:43:43;;;;;;;3.30;1.20;;;6.50;99.90;;;;;;5093220;28;20211;-95
2023/10/23 12:46:11;;;;;;;3.42;1.45;;;6.50;99.90;;;;;;5090024;28;20617;-95
2023/10/23 12:48:43;;;;;;;2.70;1.60;;;6.50;99.90;;;;;;5070941;28;20771;-95
2023/10/23 12:51:11;;;;;;;1.98;1.23;;;6.40;99.90;;;;;;5091044;28;20841;-95
2023/10/23 12:53:39;;;;;;;2.15;1.50;;;6.40;99.90;;;;;;5065235;28;20233;-94
2023/10/23 12:56:07;;;;;;;3.40;1.60;;;6.30;99.90;;;;;;5072949;28;20679;-95
2023/10/23 12:58:34;;;;;;;5.82;1.55;;;6.20;99.90;;;;;;5073077;28;20189;-94
2023/10/23 13:01:02;;;;;;;2.60;1.48;;;6.30;99.90;;;;;;5061611;28;20623;-94
2023/10/23 13:03:30;;;;;;;3.88;1.33;;;6.30;99.90;;;;;;5092708;28;20565;-96
2023/10/23 13:05:59;;;;;;;6.68;5.97;;;6.30;99.90;;;;;;5064551;28;20642;-94
2023/10/23 13:08:27;;;;;;;3.67;1.95;;;6.60;99.90;;;;;;5077544;28;20188;-94